Old Saybrook, CT

5:45 AM EDT on July 24, 2016 (GMT -0400)
Springbrook | | Change Station
Active Advisory: Heat Advisory Active Notice: Record Report

Elev 95 ft 41.32 °N, 72.37 °W | Updated 13 seconds ago

Clear
Clear
66.0 °F
Feels Like 66.0 °F
N
0.0
Wind Variable Wind from WSW
Gusts 0.0 mph

Today
High -- | Low -- °F
--% Chance of Precip.
Yesterday
High -- | Low -- °F
Precip. -- in
Pressure 29.95 in
Visibility 10.0 miles
Clouds Clear
Dew Point 61 °F
Humidity 83%
Rainfall 0.00 in
Snow Depth Not available.
5:37 AM 8:13 PM
Waning Gibbous, 78% visible
METAR KSNC 240935Z AUTO 00000KT 10SM CLR 19/16 A2995 RMK AO2
Pressure 29.95 in
Visibility 10.0 miles
Clouds Clear
Dew Point 61 °F
Humidity 83%
Rainfall 0.00 in
Snow Depth Not available.
5:37 AM 8:13 PM
Waning Gibbous, 78% visible
METAR KSNC 240935Z AUTO 00000KT 10SM CLR 19/16 A2995 RMK AO2

10-Day Weather Forecast

Almanac

Astronomy

Jul. 24, 2016 Rise Set
Actual Time
Civil Twilight
Nautical Twilight
Astronomical Twilight
Moon
Length of Visible Light
Length of Day
Tomorrow will be .
, % of the Moon is Illuminated

Today's Extremes

State Highs State Lows

Community

WunderPhotos

Upload Photos

1,927,042 photos uploaded!

WunderBlog® & News

Nearby

Air Quality

  Air Quality AQ Index Pollutant
Not available.

Snow Depth

Station Depth Elevation

Earthquake Activity

City Distance Mag. Time & Date
Minimum magnitude displayed is 2.5.

Coastal Water Temperatures

Place Temperature

Stations

Nearby Weather Stations

Station Location Temp. Windchill Dew Point Humidity Wind Precip. Elev Updated Type
                   

Watches & Warnings

Heat Advisory
Issued: 3:27 AM EDT Jul. 24, 2016 – National Weather Service

... Heat advisory in effect from 11 am to 6 PM EDT Monday...

The National Weather Service in Upton has issued a heat
advisory... which is in effect from 11 am to 6 PM EDT Monday.

* Heat index values... up to 101 due to temperatures in the low to
mid 90s and dewpoints in the lower 70s.

* Timing... highest heat indices Monday afternoon.

* Impacts... the combination of the heat and humidity will
increase the risk for heat related health issues... especially
for the elderly... those with chronic health problems such as
lung and heart disease... those working outdoors... and other heat
sensitive groups of people.

Precautionary/preparedness actions...

A heat advisory is issued when the combination of heat and
humidity is expected to make it feel like it is 100 to
104 degrees for two consecutive hours.

To reduce risk during outdoor work the occupational safety and
health administration recommends scheduling frequent rest breaks
in shaded or air conditioned environments. Anyone overcome by
heat should be moved to a cool and shaded location. Heat stroke
is an emergency... call 9 1 1.